sensor_id;sensor_type;location;lat;lon;timestamp;P1;durP1;ratioP1;P2;durP2;ratioP2
10473;SDS011;5284;50.446;7.904;2023-04-22T02:21:53;12.30;;;5.60;;
10473;SDS011;5284;50.446;7.904;2023-04-22T02:26:57;11.70;;;5.63;;
10473;SDS011;5284;50.446;7.904;2023-04-22T02:32:00;8.73;;;4.22;;
10473;SDS011;5284;50.446;7.904;2023-04-22T02:37:05;8.88;;;4.70;;
10473;SDS011;5284;50.446;7.904;2023-04-22T02:42:08;9.75;;;5.00;;
10473;SDS011;5284;50.446;7.904;2023-04-22T02:47:10;7.63;;;4.70;;
10473;SDS011;5284;50.446;7.904;2023-04-22T02:52:15;8.48;;;5.35;;
10473;SDS011;5284;50.446;7.904;2023-04-22T02:57:18;7.20;;;4.65;;
10473;SDS011;5284;50.446;7.904;2023-04-22T03:02:21;9.40;;;5.20;;
10473;SDS011;5284;50.446;7.904;2023-04-22T03:07:39;12.93;;;5.53;;
10473;SDS011;5284;50.446;7.904;2023-04-22T03:12:42;8.70;;;4.63;;
10473;SDS011;5284;50.446;7.904;2023-04-22T03:17:45;8.93;;;5.45;;
10473;SDS011;5284;50.446;7.904;2023-04-22T03:22:50;8.95;;;5.38;;
10473;SDS011;5284;50.446;7.904;2023-04-22T03:27:54;11.35;;;5.88;;
10473;SDS011;5284;50.446;7.904;2023-04-22T03:32:58;9.43;;;4.95;;
10473;SDS011;5284;50.446;7.904;2023-04-22T03:38:13;13.30;;;5.45;;
10473;SDS011;5284;50.446;7.904;2023-04-22T03:43:16;11.32;;;5.60;;
10473;SDS011;5284;50.446;7.904;2023-04-22T03:48:29;9.13;;;5.18;;
10473;SDS011;5284;50.446;7.904;2023-04-22T03:53:41;8.95;;;5.38;;
10473;SDS011;5284;50.446;7.904;2023-04-22T03:58:49;9.63;;;4.80;;
10473;SDS011;5284;50.446;7.904;2023-04-22T04:03:52;7.63;;;4.18;;
10473;SDS011;5284;50.446;7.904;2023-04-22T04:08:58;9.52;;;4.90;;
10473;SDS011;5284;50.446;7.904;2023-04-22T04:14:02;11.35;;;6.07;;
10473;SDS011;5284;50.446;7.904;2023-04-22T04:19:13;16.15;;;5.43;;
10473;SDS011;5284;50.446;7.904;2023-04-22T04:24:18;10.05;;;5.13;;
10473;SDS011;5284;50.446;7.904;2023-04-22T04:29:23;10.67;;;5.80;;
10473;SDS011;5284;50.446;7.904;2023-04-22T04:34:39;37.53;;;18.27;;
10473;SDS011;5284;50.446;7.904;2023-04-22T04:39:44;18.10;;;9.13;;
10473;SDS011;5284;50.446;7.904;2023-04-22T04:44:49;18.88;;;9.45;;
10473;SDS011;5284;50.446;7.904;2023-04-22T04:49:54;13.35;;;8.07;;
10473;SDS011;5284;50.446;7.904;2023-04-22T04:55:00;14.52;;;7.25;;
10473;SDS011;5284;50.446;7.904;2023-04-22T05:00:06;13.00;;;6.25;;
10473;SDS011;5284;50.446;7.904;2023-04-22T05:05:11;11.50;;;5.72;;
10473;SDS011;5284;50.446;7.904;2023-04-22T05:10:18;15.30;;;6.53;;
10473;SDS011;5284;50.446;7.904;2023-04-22T05:15:21;16.77;;;6.97;;
10473;SDS011;5284;50.446;7.904;2023-04-22T05:20:24;11.52;;;6.13;;
10473;SDS011;5284;50.446;7.904;2023-04-22T05:25:29;11.57;;;6.35;;
10473;SDS011;5284;50.446;7.904;2023-04-22T05:30:37;13.38;;;5.95;;
10473;SDS011;5284;50.446;7.904;2023-04-22T05:35:41;10.55;;;5.45;;
10473;SDS011;5284;50.446;7.904;2023-04-22T05:40:46;12.73;;;6.43;;
10473;SDS011;5284;50.446;7.904;2023-04-22T05:45:50;14.85;;;7.32;;
10473;SDS011;5284;50.446;7.904;2023-04-22T05:50:54;14.43;;;7.22;;
10473;SDS011;5284;50.446;7.904;2023-04-22T05:56:00;13.50;;;8.80;;
10473;SDS011;5284;50.446;7.904;2023-04-22T06:01:03;11.70;;;6.47;;
10473;SDS011;5284;50.446;7.904;2023-04-22T06:06:25;17.30;;;5.45;;
10473;SDS011;5284;50.446;7.904;2023-04-22T06:11:30;14.45;;;6.18;;
10473;SDS011;5284;50.446;7.904;2023-04-22T06:16:33;10.73;;;5.63;;
10473;SDS011;5284;50.446;7.904;2023-04-22T06:21:37;11.27;;;5.80;;
10473;SDS011;5284;50.446;7.904;2023-04-22T06:26:43;14.85;;;5.60;;
10473;SDS011;5284;50.446;7.904;2023-04-22T06:31:46;17.17;;;6.38;;
10473;SDS011;5284;50.446;7.904;2023-04-22T06:36:51;16.00;;;7.15;;
10473;SDS011;5284;50.446;7.904;2023-04-22T06:41:57;13.25;;;7.03;;
10473;SDS011;5284;50.446;7.904;2023-04-22T06:47:20;13.05;;;4.47;;
10473;SDS011;5284;50.446;7.904;2023-04-22T06:52:41;11.45;;;4.95;;
10473;SDS011;5284;50.446;7.904;2023-04-22T06:57:45;11.30;;;4.45;;
10473;SDS011;5284;50.446;7.904;2023-04-22T07:02:48;8.13;;;4.47;;
10473;SDS011;5284;50.446;7.904;2023-04-22T07:07:51;11.18;;;4.20;;
10473;SDS011;5284;50.446;7.904;2023-04-22T07:12:57;7.50;;;3.72;;
10473;SDS011;5284;50.446;7.904;2023-04-22T07:18:00;11.32;;;3.55;;
10473;SDS011;5284;50.446;7.904;2023-04-22T07:23:03;5.65;;;3.60;;
10473;SDS011;5284;50.446;7.904;2023-04-22T07:28:07;8.38;;;3.40;;
10473;SDS011;5284;50.446;7.904;2023-04-22T07:33:10;9.00;;;3.78;;
10473;SDS011;5284;50.446;7.904;2023-04-22T07:38:13;13.88;;;3.67;;
10473;SDS011;5284;50.446;7.904;2023-04-22T07:43:19;16.48;;;6.40;;
10473;SDS011;5284;50.446;7.904;2023-04-22T07:48:22;6.70;;;3.67;;
10473;SDS011;5284;50.446;7.904;2023-04-22T07:53:24;6.72;;;3.58;;
10473;SDS011;5284;50.446;7.904;2023-04-22T07:58:28;7.03;;;3.83;;
10473;SDS011;5284;50.446;7.904;2023-04-22T08:03:31;10.48;;;3.10;;
10473;SDS011;5284;50.446;7.904;2023-04-22T08:08:35;6.45;;;3.20;;
10473;SDS011;5284;50.446;7.904;2023-04-22T08:13:39;8.43;;;3.60;;
10473;SDS011;5284;50.446;7.904;2023-04-22T08:18:42;5.68;;;2.92;;
10473;SDS011;5284;50.446;7.904;2023-04-22T08:23:44;7.13;;;3.20;;
10473;SDS011;5284;50.446;7.904;2023-04-22T08:28:49;5.00;;;2.70;;
10473;SDS011;5284;50.446;7.904;2023-04-22T08:33:52;8.07;;;3.08;;
10473;SDS011;5284;50.446;7.904;2023-04-22T08:38:55;9.00;;;3.17;;
10473;SDS011;5284;50.446;7.904;2023-04-22T08:43:59;4.85;;;2.40;;
10473;SDS011;5284;50.446;7.904;2023-04-22T08:49:02;13.13;;;2.42;;
10473;SDS011;5284;50.446;7.904;2023-04-22T08:54:05;3.67;;;2.28;;
10473;SDS011;5284;50.446;7.904;2023-04-22T08:59:10;8.25;;;2.13;;
10473;SDS011;5284;50.446;7.904;2023-04-22T09:04:14;3.78;;;1.90;;
10473;SDS011;5284;50.446;7.904;2023-04-22T09:09:19;5.35;;;1.70;;
10473;SDS011;5284;50.446;7.904;2023-04-22T09:14:23;3.30;;;1.52;;
10473;SDS011;5284;50.446;7.904;2023-04-22T09:19:27;3.47;;;1.70;;
10473;SDS011;5284;50.446;7.904;2023-04-22T09:24:30;5.95;;;2.20;;
10473;SDS011;5284;50.446;7.904;2023-04-22T09:29:34;6.90;;;1.50;;
10473;SDS011;5284;50.446;7.904;2023-04-22T09:34:48;5.60;;;1.60;;
10473;SDS011;5284;50.446;7.904;2023-04-22T09:39:52;5.32;;;1.52;;
10473;SDS011;5284;50.446;7.904;2023-04-22T09:44:57;4.72;;;1.98;;
10473;SDS011;5284;50.446;7.904;2023-04-22T09:50:02;2.80;;;1.80;;
10473;SDS011;5284;50.446;7.904;2023-04-22T09:55:06;5.78;;;2.08;;
10473;SDS011;5284;50.446;7.904;2023-04-22T10:00:13;5.03;;;1.70;;
10473;SDS011;5284;50.446;7.904;2023-04-22T10:05:17;2.75;;;1.73;;
10473;SDS011;5284;50.446;7.904;2023-04-22T10:10:22;5.65;;;1.52;;
10473;SDS011;5284;50.446;7.904;2023-04-22T10:15:26;3.63;;;1.58;;
10473;SDS011;5284;50.446;7.904;2023-04-22T10:20:34;2.85;;;1.52;;
10473;SDS011;5284;50.446;7.904;2023-04-22T10:25:39;6.13;;;2.25;;
10473;SDS011;5284;50.446;7.904;2023-04-22T10:30:43;4.55;;;1.80;;
10473;SDS011;5284;50.446;7.904;2023-04-22T10:41:12;5.38;;;1.65;;
10473;SDS011;5284;50.446;7.904;2023-04-22T10:52:00;3.90;;;1.35;;
10473;SDS011;5284;50.446;7.904;2023-04-22T10:57:05;2.78;;;1.30;;
10473;SDS011;5284;50.446;7.904;2023-04-22T11:02:12;11.95;;;1.75;;
10473;SDS011;5284;50.446;7.904;2023-04-22T11:07:28;5.45;;;1.65;;
10473;SDS011;5284;50.446;7.904;2023-04-22T11:12:41;4.27;;;1.83;;
10473;SDS011;5284;50.446;7.904;2023-04-22T11:17:47;6.57;;;2.22;;
10473;SDS011;5284;50.446;7.904;2023-04-22T11:22:53;5.82;;;1.75;;
10473;SDS011;5284;50.446;7.904;2023-04-22T11:27:57;10.20;;;2.03;;
10473;SDS011;5284;50.446;7.904;2023-04-22T11:33:02;5.50;;;2.20;;
10473;SDS011;5284;50.446;7.904;2023-04-22T11:38:05;4.00;;;1.70;;
10473;SDS011;5284;50.446;7.904;2023-04-22T11:43:09;5.53;;;1.85;;
10473;SDS011;5284;50.446;7.904;2023-04-22T11:48:14;5.22;;;2.28;;
10473;SDS011;5284;50.446;7.904;2023-04-22T11:53:17;4.05;;;1.63;;
10473;SDS011;5284;50.446;7.904;2023-04-22T11:58:23;4.05;;;1.88;;
10473;SDS011;5284;50.446;7.904;2023-04-22T12:03:32;4.22;;;1.80;;
10473;SDS011;5284;50.446;7.904;2023-04-22T12:08:36;6.50;;;1.83;;
10473;SDS011;5284;50.446;7.904;2023-04-22T12:13:43;3.88;;;1.75;;
10473;SDS011;5284;50.446;7.904;2023-04-22T12:18:48;8.38;;;2.13;;
10473;SDS011;5284;50.446;7.904;2023-04-22T12:23:54;3.20;;;1.65;;
10473;SDS011;5284;50.446;7.904;2023-04-22T12:34:03;5.55;;;1.98;;
10473;SDS011;5284;50.446;7.904;2023-04-22T12:39:06;3.40;;;1.83;;
10473;SDS011;5284;50.446;7.904;2023-04-22T12:44:11;5.32;;;1.92;;
10473;SDS011;5284;50.446;7.904;2023-04-22T12:49:15;5.93;;;2.17;;
10473;SDS011;5284;50.446;7.904;2023-04-22T12:54:18;20.08;;;5.20;;
10473;SDS011;5284;50.446;7.904;2023-04-22T12:59:21;4.07;;;2.00;;
10473;SDS011;5284;50.446;7.904;2023-04-22T13:04:26;9.50;;;2.78;;
10473;SDS011;5284;50.446;7.904;2023-04-22T13:09:29;3.97;;;2.17;;
10473;SDS011;5284;50.446;7.904;2023-04-22T13:14:32;7.68;;;2.40;;
10473;SDS011;5284;50.446;7.904;2023-04-22T13:19:36;10.38;;;2.70;;
10473;SDS011;5284;50.446;7.904;2023-04-22T13:24:39;6.93;;;2.47;;
10473;SDS011;5284;50.446;7.904;2023-04-22T13:29:42;7.60;;;2.28;;
10473;SDS011;5284;50.446;7.904;2023-04-22T13:34:47;8.95;;;2.53;;
10473;SDS011;5284;50.446;7.904;2023-04-22T13:39:50;10.65;;;2.45;;
10473;SDS011;5284;50.446;7.904;2023-04-22T13:44:54;7.70;;;1.85;;
10473;SDS011;5284;50.446;7.904;2023-04-22T13:49:58;12.65;;;1.98;;
10473;SDS011;5284;50.446;7.904;2023-04-22T13:55:02;5.28;;;2.17;;
10473;SDS011;5284;50.446;7.904;2023-04-22T14:00:06;3.85;;;2.03;;
10473;SDS011;5284;50.446;7.904;2023-04-22T14:05:13;8.90;;;3.27;;
10473;SDS011;5284;50.446;7.904;2023-04-22T14:10:16;6.00;;;2.70;;
10473;SDS011;5284;50.446;7.904;2023-04-22T14:15:21;5.15;;;2.10;;
10473;SDS011;5284;50.446;7.904;2023-04-22T14:20:25;9.85;;;2.33;;
10473;SDS011;5284;50.446;7.904;2023-04-22T14:25:28;5.43;;;2.15;;
10473;SDS011;5284;50.446;7.904;2023-04-22T14:30:31;8.57;;;2.80;;
10473;SDS011;5284;50.446;7.904;2023-04-22T14:35:36;5.47;;;1.63;;
10473;SDS011;5284;50.446;7.904;2023-04-22T14:40:40;5.45;;;1.45;;
10473;SDS011;5284;50.446;7.904;2023-04-22T14:45:44;3.40;;;1.98;;
10473;SDS011;5284;50.446;7.904;2023-04-22T14:50:48;9.27;;;1.75;;
10473;SDS011;5284;50.446;7.904;2023-04-22T14:55:52;7.43;;;1.92;;
10473;SDS011;5284;50.446;7.904;2023-04-22T15:00:56;10.82;;;1.77;;
10473;SDS011;5284;50.446;7.904;2023-04-22T15:06:01;5.03;;;1.95;;
10473;SDS011;5284;50.446;7.904;2023-04-22T15:11:05;11.32;;;1.63;;
10473;SDS011;5284;50.446;7.904;2023-04-22T15:16:08;2.97;;;1.65;;
10473;SDS011;5284;50.446;7.904;2023-04-22T15:21:12;3.72;;;1.58;;
10473;SDS011;5284;50.446;7.904;2023-04-22T15:26:15;3.47;;;1.83;;
10473;SDS011;5284;50.446;7.904;2023-04-22T15:31:19;9.05;;;2.20;;
10473;SDS011;5284;50.446;7.904;2023-04-22T15:36:23;7.68;;;1.85;;
10473;SDS011;5284;50.446;7.904;2023-04-22T15:41:26;9.55;;;4.80;;
10473;SDS011;5284;50.446;7.904;2023-04-22T15:46:29;3.30;;;1.70;;
10473;SDS011;5284;50.446;7.904;2023-04-22T15:51:34;4.30;;;1.88;;
10473;SDS011;5284;50.446;7.904;2023-04-22T15:56:38;5.82;;;1.98;;
10473;SDS011;5284;50.446;7.904;2023-04-22T16:01:41;10.63;;;1.80;;
10473;SDS011;5284;50.446;7.904;2023-04-22T16:06:48;9.05;;;2.20;;
10473;SDS011;5284;50.446;7.904;2023-04-22T16:11:51;4.45;;;1.83;;
10473;SDS011;5284;50.446;7.904;2023-04-22T16:16:56;3.60;;;1.90;;
10473;SDS011;5284;50.446;7.904;2023-04-22T16:22:01;2.90;;;1.50;;
10473;SDS011;5284;50.446;7.904;2023-04-22T16:27:04;8.68;;;2.17;;
10473;SDS011;5284;50.446;7.904;2023-04-22T16:32:07;4.88;;;1.42;;
10473;SDS011;5284;50.446;7.904;2023-04-22T16:37:11;3.63;;;1.80;;
10473;SDS011;5284;50.446;7.904;2023-04-22T16:42:13;5.05;;;1.55;;
10473;SDS011;5284;50.446;7.904;2023-04-22T16:47:16;3.42;;;1.80;;
10473;SDS011;5284;50.446;7.904;2023-04-22T16:52:21;4.32;;;1.85;;
10473;SDS011;5284;50.446;7.904;2023-04-22T16:57:24;3.53;;;1.73;;
10473;SDS011;5284;50.446;7.904;2023-04-22T17:02:28;3.78;;;1.90;;
10473;SDS011;5284;50.446;7.904;2023-04-22T17:07:32;8.13;;;1.83;;
10473;SDS011;5284;50.446;7.904;2023-04-22T17:12:37;5.57;;;1.63;;
10473;SDS011;5284;50.446;7.904;2023-04-22T17:17:40;10.45;;;1.58;;
10473;SDS011;5284;50.446;7.904;2023-04-22T17:22:44;3.08;;;1.45;;
10473;SDS011;5284;50.446;7.904;2023-04-22T17:27:48;3.75;;;1.50;;
10473;SDS011;5284;50.446;7.904;2023-04-22T17:32:51;6.63;;;2.13;;
10473;SDS011;5284;50.446;7.904;2023-04-22T17:37:55;4.97;;;2.65;;
10473;SDS011;5284;50.446;7.904;2023-04-22T17:42:58;6.55;;;1.92;;
10473;SDS011;5284;50.446;7.904;2023-04-22T17:48:01;5.03;;;1.58;;
10473;SDS011;5284;50.446;7.904;2023-04-22T17:53:06;4.20;;;1.80;;
10473;SDS011;5284;50.446;7.904;2023-04-22T17:58:10;8.10;;;1.95;;
10473;SDS011;5284;50.446;7.904;2023-04-22T18:03:13;6.65;;;1.65;;
10473;SDS011;5284;50.446;7.904;2023-04-22T18:08:18;5.43;;;2.22;;
10473;SDS011;5284;50.446;7.904;2023-04-22T18:13:22;4.65;;;2.40;;
10473;SDS011;5284;50.446;7.904;2023-04-22T18:18:25;9.48;;;1.88;;
10473;SDS011;5284;50.446;7.904;2023-04-22T18:23:29;5.82;;;3.47;;
10473;SDS011;5284;50.446;7.904;2023-04-22T18:28:34;4.85;;;2.33;;
10473;SDS011;5284;50.446;7.904;2023-04-22T18:33:37;5.80;;;2.97;;
10473;SDS011;5284;50.446;7.904;2023-04-22T18:38:42;6.45;;;2.85;;
10473;SDS011;5284;50.446;7.904;2023-04-22T18:43:45;8.43;;;2.63;;
10473;SDS011;5284;50.446;7.904;2023-04-22T18:48:49;6.15;;;2.33;;
10473;SDS011;5284;50.446;7.904;2023-04-22T18:53:53;4.75;;;2.50;;
10473;SDS011;5284;50.446;7.904;2023-04-22T18:58:57;5.00;;;3.03;;
10473;SDS011;5284;50.446;7.904;2023-04-22T19:04:00;5.07;;;2.20;;
10473;SDS011;5284;50.446;7.904;2023-04-22T19:09:06;2.33;;;1.80;;
10473;SDS011;5284;50.446;7.904;2023-04-22T19:14:09;4.45;;;1.80;;
10473;SDS011;5284;50.446;7.904;2023-04-22T19:19:14;7.00;;;2.58;;
10473;SDS011;5284;50.446;7.904;2023-04-22T19:24:18;2.60;;;1.88;;
10473;SDS011;5284;50.446;7.904;2023-04-22T19:29:21;5.70;;;2.00;;
10473;SDS011;5284;50.446;7.904;2023-04-22T19:34:24;7.82;;;1.80;;
10473;SDS011;5284;50.446;7.904;2023-04-22T19:39:30;2.60;;;1.67;;
10473;SDS011;5284;50.446;7.904;2023-04-22T19:44:33;4.85;;;2.30;;
10473;SDS011;5284;50.446;7.904;2023-04-22T19:49:37;6.03;;;2.17;;
10473;SDS011;5284;50.446;7.904;2023-04-22T19:54:43;2.72;;;2.30;;
10473;SDS011;5284;50.446;7.904;2023-04-22T19:59:48;4.75;;;2.47;;
10473;SDS011;5284;50.446;7.904;2023-04-22T20:04:52;3.35;;;1.85;;
10473;SDS011;5284;50.446;7.904;2023-04-22T20:09:56;6.63;;;2.55;;
10473;SDS011;5284;50.446;7.904;2023-04-22T20:15:01;3.90;;;2.25;;
10473;SDS011;5284;50.446;7.904;2023-04-22T20:20:07;2.83;;;2.00;;
10473;SDS011;5284;50.446;7.904;2023-04-22T20:25:16;5.18;;;3.63;;
10473;SDS011;5284;50.446;7.904;2023-04-22T20:30:20;4.63;;;2.38;;
10473;SDS011;5284;50.446;7.904;2023-04-22T20:35:24;3.78;;;2.35;;
10473;SDS011;5284;50.446;7.904;2023-04-22T20:40:28;4.00;;;2.40;;
10473;SDS011;5284;50.446;7.904;2023-04-22T20:45:31;12.25;;;3.35;;
10473;SDS011;5284;50.446;7.904;2023-04-22T20:50:34;5.80;;;2.28;;
10473;SDS011;5284;50.446;7.904;2023-04-22T20:55:39;7.05;;;3.22;;
10473;SDS011;5284;50.446;7.904;2023-04-22T21:00:42;6.85;;;2.92;;
10473;SDS011;5284;50.446;7.904;2023-04-22T21:05:46;4.78;;;2.42;;
10473;SDS011;5284;50.446;7.904;2023-04-22T21:10:51;10.10;;;2.38;;
10473;SDS011;5284;50.446;7.904;2023-04-22T21:15:56;9.38;;;3.22;;
10473;SDS011;5284;50.446;7.904;2023-04-22T21:21:00;5.65;;;2.60;;
10473;SDS011;5284;50.446;7.904;2023-04-22T21:26:05;6.80;;;3.20;;
10473;SDS011;5284;50.446;7.904;2023-04-22T21:31:10;9.35;;;2.60;;
10473;SDS011;5284;50.446;7.904;2023-04-22T21:36:14;4.65;;;2.85;;
10473;SDS011;5284;50.446;7.904;2023-04-22T21:41:18;4.65;;;2.78;;
10473;SDS011;5284;50.446;7.904;2023-04-22T21:46:21;4.47;;;2.45;;
10473;SDS011;5284;50.446;7.904;2023-04-22T21:51:25;7.00;;;3.17;;
10473;SDS011;5284;50.446;7.904;2023-04-22T21:56:29;5.00;;;2.67;;
10473;SDS011;5284;50.446;7.904;2023-04-22T22:01:33;4.00;;;2.88;;
10473;SDS011;5284;50.446;7.904;2023-04-22T22:06:36;6.85;;;2.65;;
10473;SDS011;5284;50.446;7.904;2023-04-22T22:11:40;6.20;;;2.15;;
10473;SDS011;5284;50.446;7.904;2023-04-22T22:16:44;6.47;;;3.00;;
10473;SDS011;5284;50.446;7.904;2023-04-22T22:21:47;6.20;;;3.72;;
10473;SDS011;5284;50.446;7.904;2023-04-22T22:26:51;7.10;;;2.45;;
10473;SDS011;5284;50.446;7.904;2023-04-22T22:31:54;6.03;;;2.83;;
10473;SDS011;5284;50.446;7.904;2023-04-22T22:36:57;6.90;;;3.03;;
10473;SDS011;5284;50.446;7.904;2023-04-22T22:42:01;9.48;;;2.97;;
10473;SDS011;5284;50.446;7.904;2023-04-22T22:47:05;5.57;;;3.05;;
10473;SDS011;5284;50.446;7.904;2023-04-22T22:52:08;7.68;;;3.08;;
10473;SDS011;5284;50.446;7.904;2023-04-22T22:57:13;8.32;;;3.50;;
10473;SDS011;5284;50.446;7.904;2023-04-22T23:02:16;5.65;;;3.03;;
10473;SDS011;5284;50.446;7.904;2023-04-22T23:07:19;4.28;;;3.17;;
10473;SDS011;5284;50.446;7.904;2023-04-22T23:12:24;5.15;;;3.40;;
10473;SDS011;5284;50.446;7.904;2023-04-22T23:17:26;8.98;;;3.38;;
10473;SDS011;5284;50.446;7.904;2023-04-22T23:22:29;7.43;;;3.20;;
10473;SDS011;5284;50.446;7.904;2023-04-22T23:27:36;8.48;;;4.30;;
10473;SDS011;5284;50.446;7.904;2023-04-22T23:32:39;5.53;;;3.85;;
10473;SDS011;5284;50.446;7.904;2023-04-22T23:37:44;9.65;;;3.45;;
10473;SDS011;5284;50.446;7.904;2023-04-22T23:42:49;4.75;;;3.50;;
10473;SDS011;5284;50.446;7.904;2023-04-22T23:47:52;6.38;;;3.80;;
10473;SDS011;5284;50.446;7.904;2023-04-22T23:52:55;9.70;;;3.63;;
10473;SDS011;5284;50.446;7.904;2023-04-22T23:57:59;6.60;;;3.95;;
